createdAt,value
2022-11-02T00:02:18.104Z,11.94
2022-11-02T00:06:19.761Z,11.96
2022-11-02T00:10:23.305Z,11.96
2022-11-02T00:14:24.886Z,11.96
2022-11-02T00:18:26.433Z,11.90
2022-11-02T00:22:27.965Z,11.90
2022-11-02T00:26:29.630Z,11.88
2022-11-02T00:30:31.206Z,11.84
2022-11-02T00:34:32.783Z,11.85
2022-11-02T00:38:34.764Z,11.85
2022-11-02T00:42:36.334Z,11.85
2022-11-02T00:46:37.896Z,11.82
2022-11-02T00:50:39.991Z,11.77
2022-11-02T00:54:41.941Z,11.77
2022-11-02T00:58:43.623Z,11.75
2022-11-02T01:02:46.995Z,11.74
2022-11-02T01:06:49.152Z,11.72
2022-11-02T01:10:50.715Z,11.69
2022-11-02T01:14:52.325Z,11.67
2022-11-02T01:18:54.990Z,11.64
2022-11-02T01:22:58.346Z,11.64
2022-11-02T01:26:59.864Z,11.64
2022-11-02T01:31:02.179Z,11.63
2022-11-02T01:35:03.928Z,11.62
2022-11-02T01:39:06.260Z,11.60
2022-11-02T01:43:29.670Z,11.62
2022-11-02T01:47:37.995Z,11.60
2022-11-02T01:51:43.917Z,11.59
2022-11-02T01:55:45.557Z,11.60
2022-11-02T01:59:55.945Z,11.59
2022-11-02T02:03:57.997Z,11.60
2022-11-02T02:08:03.188Z,11.62
2022-11-02T02:12:06.647Z,11.63
2022-11-02T02:16:26.271Z,11.62
2022-11-02T02:20:33.360Z,11.64
2022-11-02T02:24:59.332Z,11.63
2022-11-02T02:29:05.224Z,11.63
2022-11-02T02:33:19.015Z,11.59
2022-11-02T02:37:26.740Z,11.60
2022-11-02T02:41:41.547Z,11.56
2022-11-02T02:45:47.407Z,11.56
2022-11-02T02:49:56.170Z,11.56
2022-11-02T02:54:03.205Z,11.54
2022-11-02T02:58:08.011Z,11.49
2022-11-02T03:02:21.128Z,11.49
2022-11-02T03:06:34.978Z,11.46
2022-11-02T03:10:53.338Z,11.46
2022-11-02T03:15:21.225Z,11.46
2022-11-02T03:19:29.286Z,11.45
2022-11-02T03:23:54.732Z,11.44
2022-11-02T03:28:18.349Z,11.44
2022-11-02T03:32:39.037Z,11.44
2022-11-02T03:37:02.877Z,11.51
2022-11-02T03:41:07.366Z,11.59
2022-11-02T03:45:19.775Z,11.66
2022-11-02T03:49:24.286Z,11.69
2022-11-02T03:53:43.965Z,11.72
2022-11-02T03:57:47.681Z,11.72
2022-11-02T04:01:52.901Z,11.74
2022-11-02T04:05:57.182Z,11.75
2022-11-02T04:10:04.390Z,11.78
2022-11-02T04:14:25.239Z,11.81
2022-11-02T04:18:45.645Z,11.84
2022-11-02T04:23:05.925Z,11.87
2022-11-02T04:27:07.516Z,11.88
2022-11-02T04:31:12.913Z,11.94
2022-11-02T04:35:14.767Z,11.98
2022-11-02T04:39:18.960Z,12.01
2022-11-02T04:43:20.511Z,12.03
2022-11-02T04:47:22.914Z,12.04
2022-11-02T04:51:26.952Z,12.03
2022-11-02T04:55:29.584Z,12.03
2022-11-02T04:59:31.247Z,12.03
2022-11-02T05:03:33.968Z,12.05
2022-11-02T05:07:35.719Z,12.07
2022-11-02T05:11:37.729Z,12.08
2022-11-02T05:15:41.131Z,12.11
2022-11-02T05:19:43.179Z,12.13
2022-11-02T05:23:46.328Z,12.16
2022-11-02T05:27:48.712Z,12.18
2022-11-02T05:31:50.453Z,12.13
2022-11-02T05:35:54.182Z,12.05
2022-11-02T05:39:55.828Z,12.00
2022-11-02T05:43:58.503Z,11.94
2022-11-02T05:48:06.583Z,11.85
2022-11-02T05:52:08.173Z,11.81
2022-11-02T05:56:10.454Z,11.77
2022-11-02T06:00:12.276Z,11.72
2022-11-02T06:04:16.496Z,11.67
2022-11-02T06:08:17.989Z,11.64
2022-11-02T06:12:19.600Z,11.62
2022-11-02T06:16:23.188Z,11.57
2022-11-02T06:20:25.063Z,11.54
2022-11-02T06:24:26.689Z,11.53
2022-11-02T06:28:29.644Z,11.54
2022-11-02T06:32:31.933Z,11.57
2022-11-02T06:36:33.450Z,11.60
2022-11-02T06:40:34.955Z,11.63
2022-11-02T06:44:36.575Z,11.66
2022-11-02T06:48:38.051Z,11.72
2022-11-02T06:52:47.405Z,11.72
2022-11-02T06:56:48.917Z,11.70
2022-11-02T07:00:51.368Z,11.70
2022-11-02T07:04:52.912Z,11.69
2022-11-02T07:08:55.528Z,11.67
2022-11-02T07:12:58.271Z,11.67
2022-11-02T07:16:59.820Z,11.70
2022-11-02T07:21:02.474Z,11.72
2022-11-02T07:25:04.276Z,11.75
2022-11-02T07:29:05.821Z,11.78
2022-11-02T07:33:07.647Z,11.81
2022-11-02T07:37:09.245Z,11.85
2022-11-02T07:41:10.830Z,11.90
2022-11-02T07:45:12.743Z,11.97
2022-11-02T07:49:18.681Z,12.00
2022-11-02T07:53:22.708Z,12.04
2022-11-02T07:57:24.347Z,12.05
2022-11-02T08:01:25.917Z,12.07
2022-11-02T08:05:29.131Z,12.11
2022-11-02T08:09:30.659Z,12.16
2022-11-02T08:13:33.275Z,12.22
2022-11-02T08:17:34.838Z,12.29
2022-11-02T08:21:36.368Z,12.33
2022-11-02T08:25:39.084Z,12.37
2022-11-02T08:29:40.686Z,12.44
2022-11-02T08:33:45.939Z,12.51
2022-11-02T08:37:57.024Z,12.58
2022-11-02T08:41:58.567Z,12.61
2022-11-02T08:46:14.843Z,12.70
2022-11-02T08:50:17.197Z,12.77
2022-11-02T08:54:18.703Z,12.79
2022-11-02T08:58:20.289Z,12.81
2022-11-02T09:02:22.070Z,12.88
2022-11-02T09:06:23.873Z,12.96
2022-11-02T09:10:26.751Z,13.07
2022-11-02T09:14:28.438Z,13.19
2022-11-02T09:18:30.440Z,13.35
2022-11-02T09:22:31.997Z,13.47
2022-11-02T09:26:33.552Z,13.59
2022-11-02T09:30:35.143Z,13.66
2022-11-02T09:34:36.728Z,13.81
2022-11-02T09:38:38.284Z,13.93
2022-11-02T09:42:51.046Z,13.99
2022-11-02T09:47:27.867Z,14.12
2022-11-02T09:51:29.291Z,14.29
2022-11-02T09:55:36.081Z,14.39
2022-11-02T09:59:37.642Z,14.48
2022-11-02T10:03:59.925Z,14.44
2022-11-02T10:08:36.907Z,14.44
2022-11-02T10:13:11.105Z,14.46
2022-11-02T10:17:18.595Z,14.49
2022-11-02T10:21:24.753Z,14.53
2022-11-02T10:25:26.399Z,14.61
2022-11-02T10:29:52.567Z,14.69
2022-11-02T10:33:58.359Z,14.83
2022-11-02T10:38:22.585Z,14.98
2022-11-02T10:42:52.583Z,15.15
2022-11-02T10:47:17.737Z,15.33
2022-11-02T10:51:21.375Z,15.51
2022-11-02T10:55:31.577Z,15.56
2022-11-02T10:59:33.059Z,15.68
2022-11-02T11:03:34.789Z,15.80
2022-11-02T11:07:37.135Z,15.86
2022-11-02T11:11:39.171Z,16.01
2022-11-02T11:19:50.418Z,16.40
2022-11-02T11:24:12.060Z,16.41
2022-11-02T11:28:51.998Z,16.48
2022-11-02T11:32:54.690Z,16.34
2022-11-02T11:37:11.450Z,16.37
2022-11-02T11:41:13.213Z,16.51
2022-11-02T11:45:22.484Z,16.48
2022-11-02T11:50:02.963Z,16.54
2022-11-02T11:54:07.370Z,16.57
2022-11-02T11:58:35.468Z,16.65
2022-11-02T12:02:43.962Z,16.75
2022-11-02T12:06:59.631Z,16.73
2022-11-02T12:11:12.707Z,16.78
2022-11-02T12:15:44.585Z,16.75
2022-11-02T12:20:45.210Z,16.72
2022-11-02T12:24:59.093Z,16.78
2022-11-02T12:29:38.024Z,16.80
2022-11-02T12:34:06.222Z,16.81
2022-11-02T12:38:35.833Z,16.84
2022-11-02T12:42:46.684Z,16.90
2022-11-02T12:46:59.007Z,16.90
2022-11-02T12:51:18.673Z,16.99
2022-11-02T12:55:26.265Z,16.88
2022-11-02T12:59:30.997Z,16.80
2022-11-02T13:03:52.732Z,16.87
2022-11-02T13:08:18.116Z,17.00
2022-11-02T13:12:23.173Z,17.10
2022-11-02T13:16:35.963Z,17.12
2022-11-02T13:20:44.965Z,17.18
2022-11-02T13:24:53.968Z,17.24
2022-11-02T13:29:13.675Z,17.32
2022-11-02T13:33:23.798Z,17.32
2022-11-02T13:37:39.650Z,17.33
2022-11-02T13:41:50.541Z,17.35
2022-11-02T13:46:19.688Z,17.27
2022-11-02T13:50:24.069Z,17.21
2022-11-02T13:54:34.802Z,17.18
2022-11-02T13:59:03.997Z,17.06
2022-11-02T14:03:47.085Z,17.00
2022-11-02T14:07:50.214Z,16.88
2022-11-02T14:11:51.906Z,16.84
2022-11-02T14:15:53.509Z,16.82
2022-11-02T14:19:56.346Z,16.80
2022-11-02T14:23:57.870Z,16.77
2022-11-02T14:28:30.061Z,16.73
2022-11-02T14:33:07.457Z,16.69
2022-11-02T14:37:28.854Z,16.63
2022-11-02T14:42:02.261Z,16.54
2022-11-02T14:46:32.840Z,16.45
2022-11-02T14:50:34.636Z,16.41
2022-11-02T14:54:46.278Z,16.33
2022-11-02T14:58:56.189Z,16.26
2022-11-02T15:02:58.068Z,16.17
2022-11-02T15:07:03.237Z,16.10
2022-11-02T15:11:41.821Z,16.04
2022-11-02T15:15:43.467Z,15.95
2022-11-02T15:20:14.700Z,15.91
2022-11-02T15:24:23.772Z,15.85
2022-11-02T15:28:29.495Z,15.78
2022-11-02T15:32:37.990Z,15.73
2022-11-02T15:36:42.442Z,15.64
2022-11-02T15:40:47.211Z,15.58
2022-11-02T15:45:09.492Z,15.51
2022-11-02T15:49:37.064Z,15.41
2022-11-02T15:54:03.487Z,15.31
2022-11-02T15:58:22.917Z,15.19
2022-11-02T16:02:27.670Z,15.11
2022-11-02T16:06:36.804Z,15.01
2022-11-02T16:10:38.400Z,14.94
2022-11-02T16:14:40.955Z,14.83
2022-11-02T16:18:44.669Z,14.74
2022-11-02T16:22:50.500Z,14.64
2022-11-02T16:26:52.089Z,14.53
2022-11-02T16:31:21.672Z,14.45
2022-11-02T16:35:23.306Z,14.38
2022-11-02T16:39:31.824Z,14.31
2022-11-02T16:43:36.125Z,14.27
2022-11-02T16:47:40.766Z,14.20
2022-11-02T16:51:52.215Z,14.11
2022-11-02T16:55:59.318Z,14.05
2022-11-02T17:00:07.835Z,13.98
2022-11-02T17:04:17.466Z,13.93
2022-11-02T17:08:30.054Z,13.86
2022-11-02T17:12:38.498Z,13.81
2022-11-02T17:16:59.876Z,13.76
2022-11-02T17:21:13.749Z,13.71
2022-11-02T17:25:27.321Z,13.63
2022-11-02T17:29:31.455Z,13.55
2022-11-02T17:33:33.416Z,13.54
2022-11-02T17:37:35.060Z,13.48
2022-11-02T17:41:55.395Z,13.46
2022-11-02T17:45:58.775Z,13.39
2022-11-02T17:50:00.332Z,13.38
2022-11-02T17:54:02.036Z,13.32
2022-11-02T17:58:06.386Z,13.25
2022-11-02T18:02:13.668Z,13.21
2022-11-02T18:06:15.406Z,13.19
2022-11-02T18:10:18.113Z,13.14
2022-11-02T18:14:19.622Z,13.14
2022-11-02T18:18:21.211Z,13.13
2022-11-02T18:22:22.707Z,13.07
2022-11-02T18:26:24.236Z,13.03
2022-11-02T18:30:27.439Z,12.98
2022-11-02T18:34:29.013Z,12.95
2022-11-02T18:38:31.014Z,12.95
2022-11-02T18:42:35.243Z,12.89
2022-11-02T18:46:36.909Z,12.89
2022-11-02T18:50:38.420Z,12.89
2022-11-02T18:54:40.105Z,12.88
2022-11-02T18:58:41.705Z,12.85
2022-11-02T19:02:43.273Z,12.81
2022-11-02T19:07:03.741Z,12.79
2022-11-02T19:11:05.870Z,12.74
2022-11-02T19:15:07.720Z,12.74
2022-11-02T19:19:09.499Z,12.71
2022-11-02T19:23:11.420Z,12.67
2022-11-02T19:27:18.608Z,12.62
2022-11-02T19:31:20.448Z,12.58
2022-11-02T19:35:21.988Z,12.55
2022-11-02T19:39:23.548Z,12.54
2022-11-02T19:43:26.031Z,12.46
2022-11-02T19:47:28.184Z,12.40
2022-11-02T19:51:30.969Z,12.34
2022-11-02T19:55:32.476Z,12.31
2022-11-02T19:59:34.168Z,12.30
2022-11-02T20:03:36.177Z,12.25
2022-11-02T20:07:37.851Z,12.22
2022-11-02T20:11:44.340Z,12.18
2022-11-02T20:15:45.932Z,12.15
2022-11-02T20:19:47.474Z,12.16
2022-11-02T20:23:49.535Z,12.13
2022-11-02T20:27:52.575Z,12.11
2022-11-02T20:31:54.057Z,12.05
2022-11-02T20:35:55.612Z,12.03
2022-11-02T20:39:57.094Z,12.00
2022-11-02T20:43:58.591Z,12.03
2022-11-02T20:48:04.216Z,12.04
2022-11-02T20:52:06.012Z,12.00
2022-11-02T20:56:08.138Z,12.03
2022-11-02T21:00:10.597Z,12.04
2022-11-02T21:04:18.637Z,12.03
2022-11-02T21:08:22.308Z,11.94
2022-11-02T21:12:42.181Z,11.88
2022-11-02T21:16:43.693Z,11.88
2022-11-02T21:20:45.290Z,11.85
2022-11-02T21:24:46.830Z,11.84
2022-11-02T21:28:48.407Z,11.79
2022-11-02T21:32:52.602Z,11.75
2022-11-02T21:36:54.132Z,11.74
2022-11-02T21:40:59.352Z,11.72
2022-11-02T21:45:00.879Z,11.74
2022-11-02T21:49:02.873Z,11.72
2022-11-02T21:53:04.646Z,11.72
2022-11-02T21:57:06.605Z,11.70
2022-11-02T22:01:31.694Z,11.69
2022-11-02T22:05:51.789Z,11.69
2022-11-02T22:09:53.376Z,11.70
2022-11-02T22:13:57.496Z,11.67
2022-11-02T22:17:59.027Z,11.59
2022-11-02T22:22:00.955Z,11.48
2022-11-02T22:26:05.935Z,11.46
2022-11-02T22:30:07.792Z,11.45
2022-11-02T22:34:11.911Z,11.46
2022-11-02T22:38:31.806Z,11.46
2022-11-02T22:42:34.952Z,11.45
2022-11-02T22:46:48.158Z,11.44
2022-11-02T22:50:49.653Z,11.41
2022-11-02T22:54:51.243Z,11.39
2022-11-02T22:58:52.781Z,11.36
2022-11-02T23:02:54.311Z,11.31
2022-11-02T23:06:55.804Z,11.26
2022-11-02T23:11:17.392Z,11.19
2022-11-02T23:15:18.901Z,11.13
2022-11-02T23:19:30.045Z,11.11
2022-11-02T23:23:50.066Z,11.08
2022-11-02T23:28:17.328Z,11.05
2022-11-02T23:32:28.613Z,11.03
2022-11-02T23:36:30.139Z,11.02
2022-11-02T23:40:32.607Z,11.05
2022-11-02T23:44:34.124Z,11.03
2022-11-02T23:48:35.679Z,11.02
2022-11-02T23:52:55.731Z,11.01
2022-11-02T23:56:57.250Z,10.99
